Time;durP1;ratioP1;P1;durP2;ratioP2;P2;SDS_P1;SDS_P2;PMS_P1;PMS_P2;Temp;Humidity;BMP_temperature;BMP_pressure;BME280_temperature;BME280_humidity;BME280_pressure;Samples;Min_cycle;Max_cycle;Signal;HPM_P1;HPM_P2
2021/12/30 00:00:26;;;;;;;;;0.00;0.00;;;;;;;;5033632;28;45653;-67
2021/12/30 00:02:52;;;;;;;;;0.50;0.50;;;;;;;;5037223;28;45433;-67
2021/12/30 00:05:17;;;;;;;;;0.00;0.00;;;;;;;;5015435;28;45992;-67
2021/12/30 00:07:42;;;;;;;;;0.25;0.25;;;;;;;;5034997;28;46967;-67
2021/12/30 00:10:09;;;;;;;;;0.00;0.00;;;;;;;;5034786;28;45535;-67
2021/12/30 00:12:34;;;;;;;;;1.25;0.00;;;;;;;;5034884;28;45326;-67
2021/12/30 00:15:00;;;;;;;;;0.00;0.00;;;;;;;;5036651;28;45422;-67
2021/12/30 00:17:25;;;;;;;;;0.50;0.00;;;;;;;;5035438;28;46101;-67
2021/12/30 00:19:50;;;;;;;;;0.00;0.00;;;;;;;;5035077;28;45566;-67
2021/12/30 00:22:15;;;;;;;;;0.25;0.25;;;;;;;;5034846;28;45323;-67
2021/12/30 00:24:41;;;;;;;;;0.25;0.25;;;;;;;;5034585;28;45478;-67
2021/12/30 00:27:06;;;;;;;;;0.00;0.00;;;;;;;;5035695;28;45327;-67
2021/12/30 00:29:31;;;;;;;;;0.00;0.00;;;;;;;;5035866;28;45325;-67
2021/12/30 00:31:56;;;;;;;;;0.75;0.00;;;;;;;;5034992;28;45319;-67
2021/12/30 00:34:22;;;;;;;;;0.00;0.00;;;;;;;;5035099;28;45415;-68
2021/12/30 00:36:47;;;;;;;;;0.75;0.75;;;;;;;;5034862;28;45334;-67
2021/12/30 00:39:12;;;;;;;;;1.00;1.00;;;;;;;;5034782;28;45485;-66
2021/12/30 00:41:37;;;;;;;;;1.25;1.25;;;;;;;;5034735;28;45317;-67
2021/12/30 00:44:03;;;;;;;;;0.00;0.00;;;;;;;;5015396;28;45489;-67
2021/12/30 00:46:28;;;;;;;;;0.25;0.25;;;;;;;;5034547;28;45355;-67
2021/12/30 00:48:53;;;;;;;;;1.00;0.00;;;;;;;;5034524;28;45262;-67
2021/12/30 00:51:19;;;;;;;;;0.25;0.25;;;;;;;;5034467;28;45288;-67
2021/12/30 00:53:44;;;;;;;;;0.50;0.50;;;;;;;;5036151;28;45380;-67
2021/12/30 00:56:09;;;;;;;;;0.25;0.25;;;;;;;;5033705;28;46331;-68
2021/12/30 00:58:35;;;;;;;;;0.00;0.00;;;;;;;;5034058;28;45485;-67
2021/12/30 01:01:03;;;;;;;;;0.50;0.50;;;;;;;;5034376;28;45251;-68
2021/12/30 01:03:28;;;;;;;;;0.00;0.00;;;;;;;;5034412;28;45499;-67
2021/12/30 01:05:53;;;;;;;;;1.00;1.00;;;;;;;;5035830;28;46142;-67
2021/12/30 01:08:18;;;;;;;;;0.00;0.00;;;;;;;;5033741;28;45290;-67
2021/12/30 01:10:44;;;;;;;;;0.00;0.00;;;;;;;;5034222;28;45302;-67
2021/12/30 01:13:16;;;;;;;;;1.00;0.00;;;;;;;;5034226;28;45360;-67
2021/12/30 01:15:48;;;;;;;;;0.50;0.50;;;;;;;;5034208;28;49263;-68
2021/12/30 01:18:28;;;;;;;;;0.00;0.00;;;;;;;;5034349;28;45356;-68
2021/12/30 01:20:54;;;;;;;;;0.00;0.00;;;;;;;;5032254;28;45412;-67
2021/12/30 01:23:19;;;;;;;;;0.00;0.00;;;;;;;;5031723;28;45241;-67
2021/12/30 01:25:45;;;;;;;;;0.75;0.75;;;;;;;;5033614;28;47027;-67
2021/12/30 01:28:10;;;;;;;;;0.00;0.00;;;;;;;;5033117;28;45541;-67
2021/12/30 01:30:35;;;;;;;;;0.75;0.75;;;;;;;;5034154;28;45447;-67
2021/12/30 01:33:01;;;;;;;;;0.00;0.00;;;;;;;;5017646;28;45512;-67
2021/12/30 01:35:26;;;;;;;;;0.00;0.00;;;;;;;;5034170;28;45449;-67
2021/12/30 01:37:52;;;;;;;;;1.00;1.00;;;;;;;;5033612;28;45383;-67
2021/12/30 01:40:18;;;;;;;;;0.25;0.00;;;;;;;;5033515;28;45488;-67
2021/12/30 01:42:43;;;;;;;;;1.50;0.75;;;;;;;;5033818;28;45305;-67
2021/12/30 01:45:09;;;;;;;;;0.00;0.00;;;;;;;;5034300;28;45504;-67
2021/12/30 01:47:36;;;;;;;;;0.50;0.50;;;;;;;;5035214;28;45827;-67
2021/12/30 01:50:01;;;;;;;;;0.25;0.25;;;;;;;;5033438;28;45698;-67
2021/12/30 01:52:26;;;;;;;;;0.25;0.25;;;;;;;;5033312;28;45365;-68
2021/12/30 01:54:51;;;;;;;;;0.50;0.50;;;;;;;;5033408;28;45655;-66
2021/12/30 01:57:16;;;;;;;;;0.50;0.50;;;;;;;;5033655;28;45673;-68
2021/12/30 01:59:42;;;;;;;;;0.50;0.00;;;;;;;;5034296;28;45491;-68
2021/12/30 02:02:07;;;;;;;;;1.25;0.25;;;;;;;;5032100;28;45427;-67
2021/12/30 02:04:33;;;;;;;;;3.00;1.75;;;;;;;;5032861;28;46394;-67
2021/12/30 02:06:58;;;;;;;;;0.50;0.50;;;;;;;;5033264;28;45369;-67
2021/12/30 02:09:24;;;;;;;;;1.25;1.25;;;;;;;;5017546;28;45282;-67
2021/12/30 02:11:49;;;;;;;;;0.50;0.00;;;;;;;;5035435;28;45389;-67
2021/12/30 02:14:15;;;;;;;;;1.50;1.00;;;;;;;;5032775;28;46353;-67
2021/12/30 02:16:40;;;;;;;;;1.25;0.50;;;;;;;;5033215;28;45637;-66
2021/12/30 02:19:05;;;;;;;;;0.75;0.00;;;;;;;;5032986;28;45518;-67
2021/12/30 02:21:31;;;;;;;;;1.75;0.75;;;;;;;;5032951;28;45396;-67
2021/12/30 02:23:59;;;;;;;;;0.50;0.50;;;;;;;;5034875;28;46162;-67
2021/12/30 02:26:25;;;;;;;;;0.00;0.00;;;;;;;;5032374;28;45430;-66
2021/12/30 02:28:50;;;;;;;;;0.25;0.25;;;;;;;;5033208;28;45409;-67
2021/12/30 02:31:17;;;;;;;;;1.00;1.00;;;;;;;;5033147;28;45443;-67
2021/12/30 02:33:43;;;;;;;;;0.00;0.00;;;;;;;;5033224;28;45468;-66
2021/12/30 02:36:08;;;;;;;;;0.00;0.00;;;;;;;;5033364;28;45365;-67
2021/12/30 02:38:35;;;;;;;;;0.00;0.00;;;;;;;;5032416;28;45278;-66
2021/12/30 02:41:01;;;;;;;;;1.00;1.00;;;;;;;;5034161;28;45371;-66
2021/12/30 02:43:27;;;;;;;;;0.00;0.00;;;;;;;;5035908;28;46261;-69
2021/12/30 02:45:53;;;;;;;;;0.00;0.00;;;;;;;;5036063;28;45436;-67
2021/12/30 02:48:24;;;;;;;;;0.00;0.00;;;;;;;;5035956;28;45488;-67
2021/12/30 02:50:51;;;;;;;;;1.75;0.00;;;;;;;;5038199;28;45333;-67
2021/12/30 02:53:16;;;;;;;;;2.00;1.00;;;;;;;;5035763;28;47146;-67
2021/12/30 02:55:43;;;;;;;;;1.50;0.50;;;;;;;;5036017;28;45459;-66
2021/12/30 02:58:09;;;;;;;;;0.50;0.50;;;;;;;;5036180;28;45494;-67
2021/12/30 03:00:35;;;;;;;;;0.00;0.00;;;;;;;;5036136;28;45320;-67
2021/12/30 03:03:00;;;;;;;;;0.00;0.00;;;;;;;;5036751;28;46386;-66
2021/12/30 03:05:25;;;;;;;;;0.00;0.00;;;;;;;;5036600;28;45341;-67
2021/12/30 03:07:51;;;;;;;;;0.00;0.00;;;;;;;;5036261;28;45357;-67
2021/12/30 03:10:19;;;;;;;;;0.00;0.00;;;;;;;;5036084;28;45587;-67
2021/12/30 03:12:44;;;;;;;;;0.00;0.00;;;;;;;;5035937;28;47877;-67
2021/12/30 03:15:13;;;;;;;;;0.00;0.00;;;;;;;;5036960;28;45320;-67
2021/12/30 03:17:39;;;;;;;;;0.00;0.00;;;;;;;;5036358;28;45339;-67
2021/12/30 03:20:09;;;;;;;;;0.00;0.00;;;;;;;;5034491;28;45494;-67
2021/12/30 03:22:34;;;;;;;;;0.25;0.25;;;;;;;;5035598;28;47103;-67
2021/12/30 03:24:59;;;;;;;;;0.00;0.00;;;;;;;;5035922;28;45421;-67
2021/12/30 03:27:25;;;;;;;;;0.00;0.00;;;;;;;;5018059;28;46880;-66
2021/12/30 03:29:50;;;;;;;;;0.00;0.00;;;;;;;;5037731;28;45551;-66
2021/12/30 03:32:15;;;;;;;;;1.00;0.00;;;;;;;;5035173;28;46803;-68
2021/12/30 03:34:40;;;;;;;;;1.00;0.00;;;;;;;;5035510;28;45414;-66
2021/12/30 03:37:05;;;;;;;;;0.00;0.00;;;;;;;;5035827;28;45451;-66
2021/12/30 03:39:31;;;;;;;;;0.00;0.00;;;;;;;;5035680;28;45583;-67
2021/12/30 03:41:56;;;;;;;;;0.00;0.00;;;;;;;;5037229;28;45371;-67
2021/12/30 03:44:21;;;;;;;;;0.25;0.25;;;;;;;;5035858;28;45415;-66
2021/12/30 03:46:47;;;;;;;;;0.00;0.00;;;;;;;;5035332;28;45547;-67
2021/12/30 03:49:12;;;;;;;;;0.50;0.00;;;;;;;;5035228;28;45575;-67
2021/12/30 03:51:39;;;;;;;;;1.00;0.00;;;;;;;;5034610;28;47096;-67
2021/12/30 03:54:06;;;;;;;;;0.00;0.00;;;;;;;;5036092;28;45357;-66
2021/12/30 03:56:31;;;;;;;;;0.50;0.50;;;;;;;;5035010;28;45376;-67
2021/12/30 03:58:57;;;;;;;;;0.00;0.00;;;;;;;;5033414;28;45414;-67
2021/12/30 04:01:24;;;;;;;;;0.25;0.00;;;;;;;;5034617;28;47408;-67
2021/12/30 04:03:49;;;;;;;;;0.00;0.00;;;;;;;;5035349;28;45600;-67
2021/12/30 04:06:15;;;;;;;;;1.00;1.00;;;;;;;;5035345;28;45410;-67
2021/12/30 04:08:40;;;;;;;;;0.25;0.00;;;;;;;;5037260;28;45409;-67
2021/12/30 04:11:05;;;;;;;;;0.00;0.00;;;;;;;;5034800;28;46106;-67
2021/12/30 04:13:31;;;;;;;;;0.00;0.00;;;;;;;;5034709;28;45291;-67
2021/12/30 04:15:57;;;;;;;;;0.00;0.00;;;;;;;;5034856;28;45401;-67
2021/12/30 04:18:22;;;;;;;;;0.00;0.00;;;;;;;;5034993;28;45327;-67
2021/12/30 04:20:47;;;;;;;;;0.00;0.00;;;;;;;;5036720;28;45380;-67
2021/12/30 04:23:13;;;;;;;;;0.50;0.50;;;;;;;;5034781;28;45495;-67
2021/12/30 04:25:38;;;;;;;;;0.00;0.00;;;;;;;;5034500;28;45363;-67
2021/12/30 04:28:04;;;;;;;;;0.50;0.00;;;;;;;;5034347;28;45501;-67
2021/12/30 04:30:29;;;;;;;;;0.00;0.00;;;;;;;;5034468;28;45436;-67
2021/12/30 04:32:54;;;;;;;;;0.00;0.00;;;;;;;;5018853;28;45361;-67
2021/12/30 04:35:20;;;;;;;;;0.00;0.00;;;;;;;;5033218;28;45464;-67
2021/12/30 04:37:45;;;;;;;;;0.00;0.00;;;;;;;;5033175;28;45470;-67
2021/12/30 04:40:11;;;;;;;;;0.00;0.00;;;;;;;;5033798;28;46237;-67
2021/12/30 04:42:36;;;;;;;;;0.00;0.00;;;;;;;;5033727;28;45246;-67
2021/12/30 04:45:02;;;;;;;;;0.00;0.00;;;;;;;;5035053;28;45195;-67
2021/12/30 04:47:27;;;;;;;;;0.50;0.00;;;;;;;;5034456;28;45408;-67
2021/12/30 04:49:55;;;;;;;;;1.25;0.00;;;;;;;;5033695;28;47387;-67
2021/12/30 04:52:21;;;;;;;;;0.00;0.00;;;;;;;;5033947;28;45504;-67
2021/12/30 04:54:46;;;;;;;;;0.00;0.00;;;;;;;;5032909;28;45884;-68
2021/12/30 04:57:11;;;;;;;;;0.75;0.00;;;;;;;;5034061;28;45380;-68
2021/12/30 04:59:37;;;;;;;;;0.50;0.50;;;;;;;;5035547;28;46083;-68
2021/12/30 05:02:02;;;;;;;;;0.25;0.00;;;;;;;;5034004;28;45479;-68
2021/12/30 05:04:27;;;;;;;;;0.25;0.00;;;;;;;;5032666;28;45523;-67
2021/12/30 05:06:52;;;;;;;;;0.75;0.75;;;;;;;;5033335;28;45414;-67
2021/12/30 05:09:17;;;;;;;;;0.25;0.25;;;;;;;;5033336;28;45380;-67
2021/12/30 05:11:43;;;;;;;;;0.00;0.00;;;;;;;;5035682;28;45610;-67
2021/12/30 05:14:09;;;;;;;;;0.00;0.00;;;;;;;;5031623;28;45487;-67
2021/12/30 05:16:34;;;;;;;;;0.00;0.00;;;;;;;;5032086;28;45417;-67
2021/12/30 05:18:59;;;;;;;;;0.50;0.50;;;;;;;;5033192;28;46158;-67
2021/12/30 05:21:25;;;;;;;;;0.00;0.00;;;;;;;;5033463;28;45523;-67
2021/12/30 05:23:50;;;;;;;;;0.00;0.00;;;;;;;;5034388;28;45285;-67
2021/12/30 05:26:16;;;;;;;;;0.00;0.00;;;;;;;;5032752;28;45352;-67
2021/12/30 05:28:41;;;;;;;;;0.50;0.50;;;;;;;;5032163;28;45978;-67
2021/12/30 05:31:07;;;;;;;;;0.25;0.25;;;;;;;;5032325;28;45420;-68
2021/12/30 05:33:32;;;;;;;;;0.00;0.00;;;;;;;;5033141;28;45464;-67
2021/12/30 05:35:57;;;;;;;;;0.25;0.25;;;;;;;;5035063;28;45275;-67
2021/12/30 05:38:22;;;;;;;;;0.00;0.00;;;;;;;;5033339;28;45963;-67
2021/12/30 05:40:47;;;;;;;;;1.00;0.00;;;;;;;;5032079;28;45281;-67
2021/12/30 05:43:13;;;;;;;;;0.50;0.50;;;;;;;;5032449;28;45544;-67
2021/12/30 05:45:38;;;;;;;;;2.25;1.25;;;;;;;;5033236;28;45412;-67
2021/12/30 05:48:03;;;;;;;;;1.00;1.00;;;;;;;;5033848;28;46428;-66
2021/12/30 05:50:31;;;;;;;;;1.00;1.00;;;;;;;;5033305;28;45733;-67
2021/12/30 05:52:56;;;;;;;;;1.00;1.00;;;;;;;;5030817;28;45384;-67
2021/12/30 05:55:22;;;;;;;;;1.00;1.00;;;;;;;;5030564;28;45366;-67
2021/12/30 05:57:49;;;;;;;;;0.00;0.00;;;;;;;;5032360;28;45364;-68
2021/12/30 06:00:16;;;;;;;;;0.50;0.50;;;;;;;;5032449;28;45417;-67
2021/12/30 06:02:41;;;;;;;;;2.50;1.50;;;;;;;;5034330;28;45291;-68
2021/12/30 06:05:06;;;;;;;;;1.00;1.00;;;;;;;;5031425;28;45432;-67
2021/12/30 06:07:31;;;;;;;;;0.75;0.25;;;;;;;;5031048;28;47108;-67
2021/12/30 06:09:57;;;;;;;;;3.00;2.00;;;;;;;;5031549;28;45480;-67
2021/12/30 06:12:22;;;;;;;;;0.75;0.25;;;;;;;;5031983;28;45392;-67
2021/12/30 06:14:47;;;;;;;;;1.75;1.75;;;;;;;;5033800;28;45283;-67
2021/12/30 06:17:14;;;;;;;;;1.00;1.00;;;;;;;;5031758;28;45492;-67
2021/12/30 06:19:42;;;;;;;;;1.50;1.50;;;;;;;;5030946;28;45472;-67
2021/12/30 06:22:07;;;;;;;;;1.00;1.00;;;;;;;;5031568;28;45435;-67
2021/12/30 06:24:33;;;;;;;;;3.00;0.50;;;;;;;;5014382;28;45483;-68
2021/12/30 06:26:58;;;;;;;;;1.00;1.00;;;;;;;;5033434;28;45420;-68
2021/12/30 06:29:23;;;;;;;;;1.00;1.00;;;;;;;;5032423;28;45400;-66
2021/12/30 06:31:48;;;;;;;;;1.00;1.00;;;;;;;;5030962;28;45449;-67
2021/12/30 06:34:14;;;;;;;;;3.00;2.00;;;;;;;;5030266;28;45490;-68
2021/12/30 06:36:40;;;;;;;;;3.75;2.00;;;;;;;;5031776;28;46476;-68
2021/12/30 06:39:05;;;;;;;;;3.00;1.00;;;;;;;;5032766;28;45659;-67
2021/12/30 06:41:31;;;;;;;;;3.00;3.00;;;;;;;;5031972;28;45447;-68
2021/12/30 06:43:56;;;;;;;;;4.00;2.00;;;;;;;;5032130;28;45344;-68
2021/12/30 06:46:23;;;;;;;;;4.25;2.50;;;;;;;;5031211;28;45898;-68
2021/12/30 06:48:48;;;;;;;;;5.00;1.75;;;;;;;;5031587;28;45259;-67
2021/12/30 06:51:13;;;;;;;;;1.75;0.50;;;;;;;;5026834;28;45534;-66
2021/12/30 06:53:39;;;;;;;;;3.00;2.00;;;;;;;;5031667;28;45524;-68
2021/12/30 06:56:04;;;;;;;;;3.00;3.00;;;;;;;;5030303;28;45616;-67
2021/12/30 06:58:29;;;;;;;;;5.25;1.50;;;;;;;;5031179;28;45548;-69
2021/12/30 07:00:55;;;;;;;;;3.00;1.50;;;;;;;;5012802;28;45288;-68
2021/12/30 07:03:20;;;;;;;;;5.00;2.50;;;;;;;;5031184;28;45409;-69
2021/12/30 07:05:45;;;;;;;;;2.25;2.25;;;;;;;;5014857;28;47194;-69
2021/12/30 07:08:10;;;;;;;;;3.75;2.00;;;;;;;;5029920;28;45820;-69
2021/12/30 07:10:35;;;;;;;;;3.75;3.50;;;;;;;;5028172;28;45267;-69
2021/12/30 07:13:01;;;;;;;;;5.00;4.00;;;;;;;;5028892;28;45452;-68
2021/12/30 07:15:26;;;;;;;;;4.75;2.00;;;;;;;;5029783;28;46201;-69
2021/12/30 07:17:51;;;;;;;;;4.25;2.50;;;;;;;;5031541;28;45404;-68
2021/12/30 07:20:16;;;;;;;;;3.00;3.00;;;;;;;;5030639;28;45301;-69
2021/12/30 07:22:41;;;;;;;;;4.00;4.00;;;;;;;;5030933;28;45352;-67
2021/12/30 07:25:08;;;;;;;;;5.25;3.00;;;;;;;;5029965;28;47058;-68
2021/12/30 07:27:33;;;;;;;;;2.00;2.00;;;;;;;;5032507;28;45442;-67
2021/12/30 07:29:59;;;;;;;;;3.50;2.25;;;;;;;;5035675;28;45511;-69
2021/12/30 07:32:25;;;;;;;;;5.25;4.00;;;;;;;;5032992;28;45396;-65
2021/12/30 07:34:50;;;;;;;;;7.50;3.25;;;;;;;;5033553;28;46165;-66
2021/12/30 07:37:16;;;;;;;;;4.25;2.50;;;;;;;;5033896;28;45511;-65
2021/12/30 07:39:42;;;;;;;;;3.00;1.75;;;;;;;;5033619;28;45421;-66
2021/12/30 07:42:07;;;;;;;;;1.75;0.75;;;;;;;;5016046;28;45446;-67
2021/12/30 07:44:32;;;;;;;;;1.25;1.25;;;;;;;;5034874;28;46230;-66
2021/12/30 07:46:57;;;;;;;;;2.00;2.00;;;;;;;;5030239;28;45475;-66
2021/12/30 07:49:23;;;;;;;;;4.25;4.25;;;;;;;;5031821;28;45508;-67
2021/12/30 07:51:48;;;;;;;;;3.00;3.00;;;;;;;;5032206;28;45231;-68
2021/12/30 07:54:13;;;;;;;;;5.25;4.00;;;;;;;;5033008;28;46422;-67
2021/12/30 07:56:38;;;;;;;;;4.50;3.50;;;;;;;;5034116;28;45307;-67
2021/12/30 07:59:04;;;;;;;;;4.00;4.00;;;;;;;;5034298;28;45455;-66
2021/12/30 08:01:29;;;;;;;;;5.00;2.00;;;;;;;;5034259;28;45278;-66
2021/12/30 08:03:54;;;;;;;;;5.00;3.75;;;;;;;;5033341;28;46226;-66
2021/12/30 08:06:20;;;;;;;;;4.75;3.75;;;;;;;;5032840;28;45518;-68
2021/12/30 08:08:46;;;;;;;;;6.25;4.00;;;;;;;;5033436;28;45568;-66
2021/12/30 08:11:11;;;;;;;;;4.00;3.00;;;;;;;;5032360;28;45454;-64
2021/12/30 08:13:36;;;;;;;;;3.75;2.75;;;;;;;;5032633;28;45507;-67
2021/12/30 08:16:01;;;;;;;;;4.00;3.00;;;;;;;;5032845;28;45521;-67
2021/12/30 08:18:26;;;;;;;;;3.50;2.50;;;;;;;;5032443;28;45340;-67
2021/12/30 08:20:52;;;;;;;;;3.75;2.75;;;;;;;;5035384;28;45353;-67
2021/12/30 08:23:17;;;;;;;;;8.50;4.00;;;;;;;;5032051;28;45341;-66
2021/12/30 08:25:49;;;;;;;;;7.00;3.50;;;;;;;;5032469;28;45574;-67
2021/12/30 08:28:14;;;;;;;;;4.50;4.50;;;;;;;;5031862;28;45597;-67
2021/12/30 08:30:39;;;;;;;;;5.25;4.25;;;;;;;;5030971;28;45563;-68
2021/12/30 08:33:04;;;;;;;;;7.75;4.25;;;;;;;;5034311;28;45590;-67
2021/12/30 08:35:30;;;;;;;;;4.00;2.75;;;;;;;;5032801;28;45381;-67
2021/12/30 08:37:55;;;;;;;;;3.00;2.75;;;;;;;;5032691;28;45280;-66
2021/12/30 08:40:21;;;;;;;;;2.50;2.50;;;;;;;;5032078;28;45529;-66
2021/12/30 08:42:46;;;;;;;;;2.75;2.75;;;;;;;;5032633;28;45598;-66
2021/12/30 08:45:12;;;;;;;;;5.75;5.00;;;;;;;;5031659;28;45492;-66
2021/12/30 08:47:37;;;;;;;;;6.25;3.25;;;;;;;;5033490;28;45405;-67
2021/12/30 08:50:05;;;;;;;;;6.50;3.75;;;;;;;;5031965;28;45564;-67
2021/12/30 08:52:30;;;;;;;;;5.50;3.75;;;;;;;;5032167;28;48113;-67
2021/12/30 08:54:56;;;;;;;;;6.75;4.00;;;;;;;;5013569;28;45336;-67
2021/12/30 08:57:22;;;;;;;;;3.25;2.25;;;;;;;;5032676;28;45392;-66
2021/12/30 08:59:47;;;;;;;;;5.75;3.50;;;;;;;;5034979;28;45181;-66
2021/12/30 09:02:13;;;;;;;;;6.00;3.50;;;;;;;;5031736;28;46361;-67
2021/12/30 09:04:42;;;;;;;;;3.25;2.50;;;;;;;;5032284;28;45447;-65
2021/12/30 09:07:07;;;;;;;;;7.25;4.00;;;;;;;;5032828;28;45386;-66
2021/12/30 09:09:32;;;;;;;;;4.25;3.25;;;;;;;;5030692;28;45724;-66
2021/12/30 09:11:57;;;;;;;;;7.25;4.00;;;;;;;;5033609;28;45532;-66
2021/12/30 09:14:23;;;;;;;;;5.25;3.00;;;;;;;;5033118;28;45456;-67
2021/12/30 09:16:48;;;;;;;;;4.25;3.00;;;;;;;;5032752;28;45463;-66
2021/12/30 09:19:14;;;;;;;;;5.50;4.00;;;;;;;;5031536;28;45493;-66
2021/12/30 09:21:39;;;;;;;;;5.00;4.00;;;;;;;;5031983;28;46177;-66
2021/12/30 09:24:05;;;;;;;;;7.75;3.25;;;;;;;;5032592;28;45336;-66
2021/12/30 09:26:31;;;;;;;;;2.25;1.75;;;;;;;;5033534;28;45458;-66
2021/12/30 09:28:56;;;;;;;;;5.75;4.00;;;;;;;;5031105;28;45516;-67
2021/12/30 09:31:21;;;;;;;;;4.50;2.00;;;;;;;;5032194;28;49242;-67
2021/12/30 09:33:46;;;;;;;;;7.25;4.50;;;;;;;;5031684;28;45434;-67
2021/12/30 09:36:12;;;;;;;;;5.50;3.00;;;;;;;;5031345;28;45412;-67
2021/12/30 09:38:37;;;;;;;;;5.00;3.75;;;;;;;;5033982;28;45159;-67
2021/12/30 09:41:03;;;;;;;;;4.25;3.00;;;;;;;;5029297;28;47047;-66
2021/12/30 09:43:28;;;;;;;;;5.00;3.50;;;;;;;;5032065;28;45478;-65
2021/12/30 09:45:54;;;;;;;;;3.25;3.25;;;;;;;;5030691;28;45510;-66
2021/12/30 09:48:19;;;;;;;;;4.00;4.00;;;;;;;;5032017;28;45362;-66
2021/12/30 09:50:49;;;;;;;;;1.50;1.00;;;;;;;;5031071;28;46182;-66
2021/12/30 09:53:17;;;;;;;;;4.50;3.50;;;;;;;;5031365;28;45475;-66
2021/12/30 09:55:42;;;;;;;;;8.25;3.50;;;;;;;;5031312;28;45384;-66
2021/12/30 09:58:07;;;;;;;;;4.00;3.00;;;;;;;;5031630;28;45412;-66
2021/12/30 10:00:33;;;;;;;;;3.25;3.00;;;;;;;;5031499;28;46284;-66
2021/12/30 10:02:59;;;;;;;;;6.00;2.50;;;;;;;;5032790;28;45439;-67
2021/12/30 10:05:25;;;;;;;;;3.50;2.75;;;;;;;;5031990;28;45854;-66
2021/12/30 10:08:06;;;;;;;;;6.00;5.00;;;;;;;;5031353;28;45578;-67
2021/12/30 10:10:33;;;;;;;;;3.50;3.50;;;;;;;;5031761;28;45252;-67
2021/12/30 10:13:00;;;;;;;;;5.00;3.50;;;;;;;;5031029;28;45456;-68
2021/12/30 10:15:28;;;;;;;;;4.00;3.00;;;;;;;;5016183;28;45794;-66
2021/12/30 10:17:57;;;;;;;;;6.00;3.75;;;;;;;;5028987;28;45483;-69
2021/12/30 10:20:27;;;;;;;;;3.25;3.00;;;;;;;;5031806;28;46098;-67
2021/12/30 10:22:54;;;;;;;;;4.00;4.00;;;;;;;;5030471;28;45343;-67
2021/12/30 10:25:28;;;;;;;;;2.50;2.50;;;;;;;;5029987;28;45487;-65
2021/12/30 10:27:54;;;;;;;;;3.75;2.50;;;;;;;;5030231;28;45464;-66
2021/12/30 10:30:30;;;;;;;;;4.25;3.50;;;;;;;;5031153;28;45556;-67
2021/12/30 10:33:08;;;;;;;;;5.00;2.25;;;;;;;;5029018;28;45373;-68
2021/12/30 10:35:35;;;;;;;;;4.50;3.50;;;;;;;;5032432;28;45425;-65
2021/12/30 10:38:01;;;;;;;;;5.00;4.00;;;;;;;;5030946;28;45380;-67
2021/12/30 10:40:32;;;;;;;;;5.50;3.25;;;;;;;;5030117;28;47109;-66
2021/12/30 10:43:17;;;;;;;;;5.00;4.00;;;;;;;;5031361;28;45199;-67
2021/12/30 10:45:42;;;;;;;;;4.50;3.50;;;;;;;;5025875;28;45434;-67
2021/12/30 10:48:09;;;;;;;;;7.25;6.25;;;;;;;;5030831;28;45436;-67
2021/12/30 10:50:35;;;;;;;;;2.50;2.50;;;;;;;;5032087;28;45630;-67
2021/12/30 10:53:00;;;;;;;;;4.50;4.50;;;;;;;;5030956;28;45321;-66
2021/12/30 10:55:25;;;;;;;;;6.50;4.00;;;;;;;;5030728;28;45523;-66
2021/12/30 10:57:51;;;;;;;;;4.75;3.75;;;;;;;;5029356;28;45434;-67
2021/12/30 11:00:26;;;;;;;;;3.00;3.00;;;;;;;;5027251;28;46114;-67
2021/12/30 11:02:51;;;;;;;;;5.25;4.50;;;;;;;;5033143;28;45412;-67
2021/12/30 11:05:18;;;;;;;;;3.50;2.00;;;;;;;;5032498;28;45300;-67
2021/12/30 11:07:55;;;;;;;;;1.50;1.50;;;;;;;;5032317;28;45431;-68
2021/12/30 11:10:31;;;;;;;;;6.00;3.25;;;;;;;;5016062;28;47060;-67
2021/12/30 11:13:07;;;;;;;;;8.00;4.50;;;;;;;;5034679;28;45426;-69
2021/12/30 11:15:33;;;;;;;;;5.25;2.75;;;;;;;;5019357;28;47492;-67
2021/12/30 11:18:07;;;;;;;;;7.00;2.75;;;;;;;;5035725;28;45364;-67
2021/12/30 11:20:37;;;;;;;;;2.00;1.50;;;;;;;;5031229;28;45451;-66
2021/12/30 11:23:02;;;;;;;;;3.00;3.00;;;;;;;;5031277;28;45462;-66
2021/12/30 11:25:28;;;;;;;;;6.00;3.25;;;;;;;;5033336;28;45390;-67
2021/12/30 11:27:53;;;;;;;;;6.75;3.25;;;;;;;;5033943;28;45560;-68
2021/12/30 11:30:19;;;;;;;;;5.25;3.25;;;;;;;;5033515;28;46411;-68
2021/12/30 11:32:48;;;;;;;;;7.50;2.75;;;;;;;;5036092;28;45372;-67
2021/12/30 11:35:14;;;;;;;;;2.50;2.50;;;;;;;;5034082;28;45369;-65
2021/12/30 11:37:39;;;;;;;;;3.75;2.00;;;;;;;;5034141;28;45289;-67
2021/12/30 11:40:17;;;;;;;;;3.25;3.00;;;;;;;;5033186;28;47192;-67
2021/12/30 11:42:45;;;;;;;;;2.25;1.50;;;;;;;;5031828;28;47543;-67
2021/12/30 11:45:30;;;;;;;;;3.00;1.75;;;;;;;;5033980;28;45563;-70
2021/12/30 11:47:56;;;;;;;;;5.25;2.25;;;;;;;;5035166;28;45460;-68
2021/12/30 11:50:27;;;;;;;;;5.00;2.75;;;;;;;;5032843;28;45454;-66
2021/12/30 11:52:52;;;;;;;;;3.75;2.50;;;;;;;;5033116;28;45440;-67
2021/12/30 11:55:37;;;;;;;;;3.00;2.25;;;;;;;;5032828;28;45326;-67
2021/12/30 11:58:21;;;;;;;;;6.50;4.25;;;;;;;;5032583;28;45260;-67
2021/12/30 12:00:46;;;;;;;;;1.50;0.50;;;;;;;;5032274;28;46248;-68
2021/12/30 12:03:31;;;;;;;;;3.00;2.50;;;;;;;;5032715;28;45346;-67
2021/12/30 12:05:56;;;;;;;;;4.75;4.75;;;;;;;;5030505;28;45600;-69
2021/12/30 12:08:26;;;;;;;;;7.75;4.00;;;;;;;;5030720;28;45317;-67
2021/12/30 12:11:18;;;;;;;;;2.00;2.00;;;;;;;;5032860;28;46494;-67
2021/12/30 12:13:44;;;;;;;;;3.00;1.00;;;;;;;;5009540;28;45425;-67
2021/12/30 12:16:10;;;;;;;;;3.00;1.75;;;;;;;;5032442;28;45452;-66
2021/12/30 12:18:35;;;;;;;;;6.00;5.75;;;;;;;;5033103;28;45576;-69
2021/12/30 12:21:02;;;;;;;;;3.00;2.25;;;;;;;;5033343;28;46321;-68
2021/12/30 12:23:31;;;;;;;;;3.00;2.75;;;;;;;;5032395;28;45369;-68
2021/12/30 12:26:07;;;;;;;;;3.00;2.00;;;;;;;;5031671;28;45555;-67
2021/12/30 12:28:33;;;;;;;;;3.25;3.00;;;;;;;;5032513;28;45428;-66
2021/12/30 12:30:58;;;;;;;;;1.25;1.25;;;;;;;;5032807;28;46278;-68
2021/12/30 12:33:28;;;;;;;;;2.25;2.25;;;;;;;;5032940;28;45710;-68
2021/12/30 12:35:53;;;;;;;;;2.00;2.00;;;;;;;;5034518;28;45263;-68
2021/12/30 12:38:37;;;;;;;;;2.75;1.75;;;;;;;;5031915;28;45967;-66
2021/12/30 12:41:14;;;;;;;;;2.50;2.00;;;;;;;;5031851;28;46207;-68
2021/12/30 12:43:40;;;;;;;;;1.50;1.50;;;;;;;;5031775;28;45451;-67
2021/12/30 12:46:05;;;;;;;;;7.25;7.00;;;;;;;;5032216;28;45281;-67
2021/12/30 12:48:32;;;;;;;;;4.25;2.75;;;;;;;;5032147;28;45251;-67
2021/12/30 12:51:01;;;;;;;;;3.50;2.25;;;;;;;;5015395;28;45876;-67
2021/12/30 12:53:28;;;;;;;;;4.25;2.75;;;;;;;;5032609;28;45491;-66
2021/12/30 12:55:54;;;;;;;;;4.00;2.50;;;;;;;;5032771;28;45336;-67
2021/12/30 12:58:20;;;;;;;;;3.80;3.80;;;;;;;;5032472;28;45670;-68
2021/12/30 13:00:46;;;;;;;;;4.00;3.25;;;;;;;;5030552;28;47339;-67
2021/12/30 13:03:13;;;;;;;;;6.00;4.00;;;;;;;;5033655;28;45584;-66
2021/12/30 13:05:50;;;;;;;;;3.00;3.00;;;;;;;;5032948;28;45313;-68
2021/12/30 13:08:16;;;;;;;;;2.75;2.75;;;;;;;;5014899;28;45556;-67
2021/12/30 13:10:41;;;;;;;;;6.00;4.00;;;;;;;;5032086;28;46042;-67
2021/12/30 13:13:06;;;;;;;;;3.75;3.75;;;;;;;;5032007;28;45337;-67
2021/12/30 13:15:38;;;;;;;;;3.00;2.33;;;;;;;;5032862;28;45469;-69
2021/12/30 13:18:12;;;;;;;;;3.00;2.00;;;;;;;;5033407;28;45315;-67
2021/12/30 13:20:37;;;;;;;;;3.75;3.25;;;;;;;;5031901;28;47128;-67
2021/12/30 13:23:03;;;;;;;;;5.25;5.25;;;;;;;;5030558;28;45802;-68
2021/12/30 13:25:28;;;;;;;;;3.67;2.67;;;;;;;;5031037;28;45469;-67
2021/12/30 13:27:54;;;;;;;;;2.00;1.00;;;;;;;;5031951;28;45483;-70
2021/12/30 13:30:19;;;;;;;;;2.33;2.00;;;;;;;;5031712;28;46010;-67
2021/12/30 13:32:47;;;;;;;;;2.00;2.00;;;;;;;;5034075;28;45483;-77
2021/12/30 13:35:13;;;;;;;;;7.00;7.00;;;;;;;;5031140;28;45730;-77
2021/12/30 13:37:42;;;;;;;;;7.50;6.25;;;;;;;;5014095;28;45454;-78
2021/12/30 13:40:16;;;;;;;;;3.00;3.00;;;;;;;;5030213;28;45484;-76
2021/12/30 13:42:48;;;;;;;;;2.00;2.00;;;;;;;;5031380;28;45450;-77
2021/12/30 13:45:13;;;;;;;;;1.00;1.00;;;;;;;;5013622;28;45512;-78
2021/12/30 13:47:39;;;;;;;;;3.00;1.67;;;;;;;;5033422;28;45362;-77
2021/12/30 13:50:24;;;;;;;;;1.00;1.00;;;;;;;;5031606;28;45980;-77
2021/12/30 13:52:50;;;;;;;;;4.33;4.33;;;;;;;;5030242;28;45571;-76
2021/12/30 13:55:15;;;;;;;;;3.67;3.67;;;;;;;;5031423;28;45530;-77
2021/12/30 13:57:41;;;;;;;;;4.33;3.00;;;;;;;;5030994;28;45340;-75
2021/12/30 14:00:12;;;;;;;;;2.67;1.00;;;;;;;;5031900;28;46434;-78
2021/12/30 14:02:37;;;;;;;;;0.67;0.67;;;;;;;;5012623;28;45427;-77
2021/12/30 14:05:06;;;;;;;;;3.67;3.67;;;;;;;;5031103;28;45392;-77
2021/12/30 14:07:33;;;;;;;;;7.00;7.00;;;;;;;;5030720;28;45589;-76
2021/12/30 14:09:58;;;;;;;;;1.67;1.67;;;;;;;;5030567;28;45451;-77
2021/12/30 14:12:23;;;;;;;;;4.00;4.00;;;;;;;;5031168;28;45511;-77
2021/12/30 14:14:52;;;;;;;;;2.67;2.67;;;;;;;;5032903;28;45496;-78
2021/12/30 14:17:17;;;;;;;;;5.67;2.33;;;;;;;;5028337;28;45323;-78
2021/12/30 14:19:48;;;;;;;;;1.33;1.33;;;;;;;;5029619;28;46176;-76
2021/12/30 14:22:14;;;;;;;;;0.33;0.00;;;;;;;;5029670;28;45326;-75
2021/12/30 14:24:40;;;;;;;;;1.33;0.33;;;;;;;;5030523;28;45494;-75
2021/12/30 14:27:16;;;;;;;;;3.00;1.33;;;;;;;;5031646;28;45537;-75
2021/12/30 14:29:41;;;;;;;;;2.00;2.00;;;;;;;;5031237;28;46471;-77
2021/12/30 14:32:10;;;;;;;;;5.00;3.00;;;;;;;;5029968;28;45447;-77
2021/12/30 14:34:37;;;;;;;;;2.67;2.00;;;;;;;;5030109;28;45253;-77
2021/12/30 14:37:19;;;;;;;;;3.00;2.00;;;;;;;;5033881;28;45422;-76
2021/12/30 14:39:49;;;;;;;;;2.67;2.00;;;;;;;;5015067;28;46785;-76